Time;durP1;ratioP1;P1;durP2;ratioP2;P2;SDS_P1;SDS_P2;PMS_P1;PMS_P2;Temp;Humidity;BMP_temperature;BMP_pressure;BME280_temperature;BME280_humidity;BME280_pressure;Samples;Min_cycle;Max_cycle;Signal;HPM_P1;HPM_P2
2022/09/26 00:00:41;;;;;;;1.23;1.10;;;10.80;99.90;;;;;;5065225;28;20128;-78
2022/09/26 00:03:08;;;;;;;1.17;1.10;;;10.70;99.90;;;;;;5047081;28;20035;-78
2022/09/26 00:05:35;;;;;;;1.30;1.05;;;10.70;99.90;;;;;;5056824;28;20506;-78
2022/09/26 00:08:01;;;;;;;1.60;1.00;;;10.80;99.90;;;;;;5056099;28;20036;-78
2022/09/26 00:10:27;;;;;;;0.70;0.70;;;10.70;99.90;;;;;;5040042;28;20126;-78
2022/09/26 00:12:54;;;;;;;1.05;1.00;;;10.70;99.90;;;;;;5055221;28;20088;-78
2022/09/26 00:15:20;;;;;;;0.82;0.80;;;10.70;99.90;;;;;;5048293;28;20036;-78
2022/09/26 00:17:45;;;;;;;1.30;1.15;;;10.70;99.90;;;;;;5039909;28;20037;-78
2022/09/26 00:20:11;;;;;;;1.08;0.98;;;10.70;99.90;;;;;;5056972;28;20483;-78
2022/09/26 00:22:36;;;;;;;1.00;0.90;;;10.70;99.90;;;;;;5039472;28;20120;-78
2022/09/26 00:25:03;;;;;;;1.02;0.90;;;10.70;99.90;;;;;;5055799;28;20036;-78
2022/09/26 00:27:28;;;;;;;0.80;0.80;;;10.70;99.90;;;;;;5037812;28;20070;-78
2022/09/26 00:29:54;;;;;;;1.00;0.88;;;10.70;99.90;;;;;;5048388;28;20310;-78
2022/09/26 00:32:19;;;;;;;0.70;0.70;;;10.70;99.90;;;;;;5073138;28;20040;-78
2022/09/26 00:34:45;;;;;;;0.77;0.70;;;10.70;99.90;;;;;;5036168;28;20044;-78
2022/09/26 00:37:11;;;;;;;1.00;0.90;;;10.70;99.90;;;;;;5039510;28;20119;-78
2022/09/26 00:39:36;;;;;;;1.40;1.00;;;10.60;99.90;;;;;;5044371;28;20048;-78
2022/09/26 00:42:02;;;;;;;0.60;0.60;;;10.70;99.90;;;;;;5048708;28;20045;-78
2022/09/26 00:44:43;;;;;;;1.10;0.70;;;10.60;99.90;;;;;;5046663;28;20036;-78
2022/09/26 00:47:35;;;;;;;1.15;0.70;;;10.60;99.90;;;;;;5032802;28;20045;-78
2022/09/26 00:50:32;;;;;;;0.80;0.77;;;10.70;99.90;;;;;;5056547;28;20083;-78
2022/09/26 00:53:15;;;;;;;0.80;0.80;;;10.70;99.90;;;;;;5055590;28;20032;-78
2022/09/26 00:55:47;;;;;;;1.17;0.63;;;10.70;99.90;;;;;;5054523;28;20040;-79
2022/09/26 00:58:27;;;;;;;0.52;0.52;;;10.70;99.90;;;;;;5055703;28;20328;-78
2022/09/26 01:00:54;;;;;;;0.77;0.77;;;10.70;99.90;;;;;;5072315;28;20046;-78
2022/09/26 01:03:21;;;;;;;1.15;0.80;;;10.70;99.90;;;;;;5049454;28;20033;-78
2022/09/26 01:05:47;;;;;;;0.80;0.73;;;10.70;99.90;;;;;;5056248;28;20063;-78
2022/09/26 01:08:16;;;;;;;0.75;0.70;;;10.70;99.90;;;;;;5063243;28;20098;-78
2022/09/26 01:10:44;;;;;;;1.55;0.70;;;10.70;99.90;;;;;;5070172;28;20082;-78
2022/09/26 01:13:11;;;;;;;0.75;0.75;;;10.70;99.90;;;;;;5069459;28;20078;-78
2022/09/26 01:15:37;;;;;;;0.82;0.80;;;10.70;99.90;;;;;;5053382;28;20135;-78
2022/09/26 01:18:06;;;;;;;1.30;1.00;;;10.70;99.90;;;;;;5046743;28;20123;-78
2022/09/26 01:20:51;;;;;;;0.80;0.80;;;10.70;99.90;;;;;;5055655;28;20127;-78
2022/09/26 01:23:26;;;;;;;1.60;0.82;;;10.80;99.90;;;;;;5055159;28;20040;-78
2022/09/26 01:26:07;;;;;;;1.02;0.88;;;10.70;99.90;;;;;;5055251;28;20094;-78
2022/09/26 01:28:54;;;;;;;1.00;0.88;;;10.70;99.90;;;;;;5037807;28;20068;-78
2022/09/26 01:34:55;;;;;;;0.90;0.90;;;10.70;99.90;;;;;;5054833;28;20135;-79
2022/09/26 01:37:36;;;;;;;1.42;0.93;;;10.70;99.90;;;;;;5054170;28;20220;-79
2022/09/26 01:40:31;;;;;;;1.20;1.10;;;10.70;99.90;;;;;;5042535;28;20044;-78
2022/09/26 01:43:15;;;;;;;1.30;1.20;;;10.70;99.90;;;;;;5046631;28;20032;-79
2022/09/26 01:46:17;;;;;;;1.45;1.20;;;10.70;99.90;;;;;;5053217;28;20044;-78
2022/09/26 01:48:47;;;;;;;1.40;1.10;;;10.60;99.90;;;;;;5063659;28;20091;-79
2022/09/26 01:51:25;;;;;;;1.13;1.02;;;10.60;99.90;;;;;;5038065;28;20033;-78
2022/09/26 01:54:04;;;;;;;1.52;1.30;;;10.60;99.90;;;;;;5062069;28;20470;-78
2022/09/26 01:56:35;;;;;;;1.67;1.23;;;10.50;99.90;;;;;;5054808;28;20045;-78
2022/09/26 01:59:18;;;;;;;1.95;1.27;;;10.50;99.90;;;;;;5018314;28;20037;-79
2022/09/26 02:01:45;;;;;;;2.23;1.40;;;10.50;99.90;;;;;;5026698;28;20405;-78
2022/09/26 02:04:18;;;;;;;2.47;1.50;;;10.60;99.90;;;;;;5060876;28;20442;-79
2022/09/26 02:06:58;;;;;;;1.52;1.42;;;10.60;99.90;;;;;;5055077;28;20052;-78
2022/09/26 02:09:32;;;;;;;2.25;1.42;;;10.60;99.90;;;;;;5055290;28;20064;-78
2022/09/26 02:12:01;;;;;;;1.70;1.60;;;10.60;99.90;;;;;;5037803;28;20051;-78
2022/09/26 02:14:40;;;;;;;1.95;1.55;;;10.60;99.90;;;;;;5037234;28;20028;-78
2022/09/26 02:17:15;;;;;;;1.90;1.70;;;10.60;99.90;;;;;;5050356;28;20044;-78
2022/09/26 02:19:57;;;;;;;2.00;1.80;;;10.60;99.90;;;;;;5068863;28;20082;-78
2022/09/26 02:22:25;;;;;;;1.60;1.50;;;10.70;99.90;;;;;;5049755;28;20490;-79
2022/09/26 02:24:52;;;;;;;1.52;1.42;;;10.70;99.90;;;;;;5037086;28;20036;-78
2022/09/26 02:27:18;;;;;;;1.70;1.58;;;10.70;99.90;;;;;;5053252;28;20489;-79
2022/09/26 02:29:44;;;;;;;1.83;1.55;;;10.70;99.90;;;;;;5080293;22;20130;-78
2022/09/26 02:32:19;;;;;;;1.92;1.70;;;10.70;99.90;;;;;;5057936;28;20058;-79
2022/09/26 02:34:50;;;;;;;2.20;2.00;;;10.70;99.90;;;;;;5056434;28;20501;-78
2022/09/26 02:37:20;;;;;;;1.98;1.67;;;10.70;99.90;;;;;;5057965;28;20036;-78
2022/09/26 02:39:49;;;;;;;1.90;1.73;;;10.70;99.90;;;;;;5057507;28;20040;-78
2022/09/26 02:42:35;;;;;;;2.38;1.80;;;10.70;99.90;;;;;;5056083;28;20093;-78
2022/09/26 02:45:30;;;;;;;2.10;1.77;;;10.80;99.90;;;;;;5049295;28;20115;-77
2022/09/26 02:48:28;;;;;;;1.98;1.75;;;10.80;99.90;;;;;;5044208;28;20082;-77
2022/09/26 02:51:23;;;;;;;1.80;1.67;;;10.70;99.90;;;;;;5017164;28;20110;-78
2022/09/26 02:54:16;;;;;;;2.00;1.80;;;10.70;99.90;;;;;;5056303;28;20040;-77
2022/09/26 02:57:02;;;;;;;1.90;1.67;;;10.70;99.90;;;;;;5039888;28;20047;-78
2022/09/26 02:59:40;;;;;;;2.00;1.77;;;10.70;99.90;;;;;;5057469;28;20032;-77
2022/09/26 03:02:20;;;;;;;2.13;1.92;;;10.70;99.90;;;;;;5056815;28;20482;-77
2022/09/26 03:04:49;;;;;;;2.00;1.80;;;10.70;99.90;;;;;;5054781;28;20454;-77
2022/09/26 03:07:27;;;;;;;2.10;1.80;;;10.70;99.90;;;;;;5056786;28;20040;-77
2022/09/26 03:10:00;;;;;;;1.90;1.58;;;10.70;99.90;;;;;;5057056;28;20561;-77
2022/09/26 03:12:26;;;;;;;;;;;10.60;99.90;;;;;;5056877;28;20072;-77
2022/09/26 03:14:53;;;;;;;2.03;1.80;;;10.60;99.90;;;;;;5056458;28;20396;-77
2022/09/26 03:17:20;;;;;;;2.10;1.77;;;10.60;99.90;;;;;;5055986;28;20501;-77
2022/09/26 03:20:00;;;;;;;1.77;1.67;;;10.60;99.90;;;;;;5056635;28;20186;-77
2022/09/26 03:22:26;;;;;;;2.40;1.88;;;10.60;99.90;;;;;;5056788;28;20068;-77
2022/09/26 03:24:52;;;;;;;2.45;2.15;;;10.50;99.90;;;;;;5061252;28;20440;-77
2022/09/26 03:27:19;;;;;;;3.22;2.00;;;10.50;99.90;;;;;;5060659;28;20044;-77
2022/09/26 03:29:45;;;;;;;1.80;1.65;;;10.50;99.90;;;;;;5060334;28;20035;-77
2022/09/26 03:32:11;;;;;;;2.35;2.05;;;10.50;99.90;;;;;;5076894;28;20050;-77
2022/09/26 03:34:39;;;;;;;1.85;1.75;;;10.50;99.90;;;;;;5059921;28;20043;-77
2022/09/26 03:37:15;;;;;;;2.05;1.85;;;10.50;99.90;;;;;;5061030;28;20039;-77
2022/09/26 03:39:49;;;;;;;2.13;1.92;;;10.60;99.90;;;;;;5060423;28;20074;-78
2022/09/26 03:42:15;;;;;;;2.20;2.00;;;10.40;99.90;;;;;;5077097;28;20528;-77
2022/09/26 03:44:42;;;;;;;2.45;2.15;;;10.50;99.90;;;;;;5060714;28;20039;-77
2022/09/26 03:47:09;;;;;;;2.38;1.98;;;10.40;99.90;;;;;;5059257;28;20048;-78
2022/09/26 03:49:35;;;;;;;2.13;1.92;;;10.40;99.90;;;;;;5058751;28;20028;-77
2022/09/26 03:52:02;;;;;;;2.50;2.10;;;10.40;99.90;;;;;;5060623;28;20032;-77
2022/09/26 03:54:30;;;;;;;2.30;2.10;;;10.50;99.90;;;;;;5060439;28;20047;-77
2022/09/26 03:57:01;;;;;;;2.55;2.00;;;10.40;99.90;;;;;;5061435;28;20117;-77
2022/09/26 03:59:27;;;;;;;2.47;2.08;;;10.40;99.90;;;;;;5061073;28;20036;-77
2022/09/26 04:01:55;;;;;;;2.80;2.17;;;10.40;99.90;;;;;;5053989;28;20481;-77
2022/09/26 04:04:21;;;;;;;2.50;2.10;;;10.40;99.90;;;;;;5059434;28;20040;-77
2022/09/26 04:06:53;;;;;;;2.60;2.35;;;10.40;99.90;;;;;;5059702;28;20051;-77
2022/09/26 04:09:25;;;;;;;3.33;2.67;;;10.40;99.90;;;;;;5059387;28;20501;-77
2022/09/26 04:11:55;;;;;;;3.08;2.50;;;10.40;99.90;;;;;;5076498;28;20047;-78
2022/09/26 04:14:21;;;;;;;2.92;2.40;;;10.40;99.90;;;;;;5058939;28;20117;-77
2022/09/26 04:16:49;;;;;;;2.65;2.20;;;10.40;99.90;;;;;;5059416;28;20044;-77
2022/09/26 04:19:18;;;;;;;2.33;2.13;;;10.40;99.90;;;;;;5058290;28;20106;-78
2022/09/26 04:21:44;;;;;;;2.58;2.38;;;10.40;99.90;;;;;;5058903;28;20043;-78
2022/09/26 04:24:28;;;;;;;2.97;2.65;;;10.40;99.90;;;;;;5057945;28;20100;-77
2022/09/26 04:26:58;;;;;;;2.55;2.35;;;10.30;99.90;;;;;;5058306;28;20034;-77
2022/09/26 04:29:29;;;;;;;2.88;2.58;;;10.30;99.90;;;;;;5059808;28;20402;-78
2022/09/26 04:31:58;;;;;;;3.13;2.83;;;10.30;99.90;;;;;;5060127;28;20032;-77
2022/09/26 04:34:26;;;;;;;2.70;2.30;;;10.30;99.90;;;;;;5058719;28;20452;-77
2022/09/26 04:36:53;;;;;;;3.55;2.75;;;10.20;99.90;;;;;;5059400;28;20052;-77
2022/09/26 04:39:19;;;;;;;2.90;2.60;;;10.40;99.90;;;;;;5059905;28;20413;-78
2022/09/26 04:41:47;;;;;;;2.80;2.58;;;10.30;99.90;;;;;;5056227;28;20055;-77
2022/09/26 04:44:14;;;;;;;3.10;2.78;;;10.30;99.90;;;;;;5059405;28;20126;-77
2022/09/26 04:46:47;;;;;;;2.75;2.45;;;10.30;99.90;;;;;;5057659;28;20501;-77
2022/09/26 04:49:22;;;;;;;2.78;2.47;;;10.30;99.90;;;;;;5059985;28;20036;-77
2022/09/26 04:51:51;;;;;;;3.00;2.63;;;10.30;99.90;;;;;;5059372;28;20036;-77
2022/09/26 04:54:20;;;;;;;3.13;2.83;;;10.20;99.90;;;;;;5057415;28;20047;-77
2022/09/26 04:56:50;;;;;;;2.78;2.40;;;10.20;99.90;;;;;;5057077;28;20482;-78
2022/09/26 04:59:35;;;;;;;2.78;2.45;;;10.20;99.90;;;;;;5060059;28;20040;-78
2022/09/26 05:02:26;;;;;;;3.55;2.90;;;10.30;99.90;;;;;;5052571;28;20452;-77
2022/09/26 05:05:10;;;;;;;3.17;2.70;;;10.20;99.90;;;;;;5054128;28;20131;-78
2022/09/26 05:08:09;;;;;;;2.97;2.67;;;10.20;99.90;;;;;;5074400;28;20063;-77
2022/09/26 05:10:54;;;;;;;3.20;2.60;;;10.10;99.90;;;;;;5020024;28;20044;-76
2022/09/26 05:13:26;;;;;;;3.20;2.78;;;10.10;99.90;;;;;;5063800;28;20452;-77
2022/09/26 05:16:08;;;;;;;3.33;2.80;;;10.10;99.90;;;;;;5062579;28;20115;-77
2022/09/26 05:18:35;;;;;;;3.67;2.70;;;10.10;99.90;;;;;;5058864;28;20527;-77
2022/09/26 05:21:02;;;;;;;3.30;2.83;;;10.10;99.90;;;;;;5074800;28;20513;-76
2022/09/26 05:26:24;;;;;;;4.25;2.80;;;10.00;99.90;;;;;;5067772;28;20083;-76
2022/09/26 05:29:03;;;;;;;3.65;2.90;;;10.00;99.90;;;;;;5054641;28;20040;-77
2022/09/26 05:31:52;;;;;;;3.47;3.03;;;10.00;99.90;;;;;;5032203;28;20045;-77
2022/09/26 05:34:31;;;;;;;3.45;2.85;;;10.00;99.90;;;;;;5036134;28;20127;-77
2022/09/26 05:37:12;;;;;;;3.60;3.25;;;10.00;99.90;;;;;;5057516;28;20043;-77
2022/09/26 05:43:06;;;;;;;3.50;3.20;;;10.00;99.90;;;;;;5069844;28;20527;-78
2022/09/26 05:45:43;;;;;;;3.65;3.22;;;10.00;99.90;;;;;;5054257;28;20093;-78
2022/09/26 05:51:48;;;;;;;3.45;2.80;;;9.90;99.90;;;;;;4993972;28;20087;-77
2022/09/26 05:54:35;;;;;;;;;;;;;;;;;;;;;
2022/09/26 05:57:48;;;;;;;3.55;2.95;;;9.90;99.90;;;;;;5088249;28;20048;-76
2022/09/26 06:00:27;;;;;;;3.75;3.25;;;9.80;99.90;;;;;;5058067;28;20551;-77
2022/09/26 06:03:10;;;;;;;3.70;3.10;;;9.90;99.90;;;;;;5074826;28;20318;-78
2022/09/26 06:05:38;;;;;;;3.75;3.10;;;9.80;99.90;;;;;;5057630;28;20489;-77
2022/09/26 06:08:22;;;;;;;4.65;2.78;;;9.80;99.90;;;;;;5055137;28;20047;-75
2022/09/26 06:10:48;;;;;;;3.25;2.92;;;9.80;99.90;;;;;;5074169;28;20068;-77
2022/09/26 06:13:20;;;;;;;3.78;2.80;;;9.80;99.90;;;;;;5054328;28;20072;-77
2022/09/26 06:15:56;;;;;;;3.90;3.00;;;9.80;99.90;;;;;;5055233;28;20452;-76
2022/09/26 06:18:26;;;;;;;3.45;2.80;;;9.80;99.90;;;;;;5057243;28;20036;-76
2022/09/26 06:21:22;;;;;;;3.60;2.80;;;9.80;99.90;;;;;;5058422;28;20444;-76
2022/09/26 06:24:22;;;;;;;3.05;2.55;;;9.80;99.90;;;;;;5058309;28;20624;-76
2022/09/26 06:27:02;;;;;;;3.28;2.80;;;9.80;99.90;;;;;;5074347;28;20045;-76
2022/09/26 06:32:52;;;;;;;2.95;2.55;;;9.80;99.90;;;;;;5034790;28;20048;-77
2022/09/26 06:38:44;;;;;;;2.83;2.40;;;9.80;99.90;;;;;;5051610;28;20052;-76
2022/09/26 06:41:15;;;;;;;2.83;2.50;;;9.80;99.90;;;;;;5036311;28;20048;-77
2022/09/26 06:43:50;;;;;;;3.00;2.50;;;9.70;99.90;;;;;;5047334;28;20467;-76
2022/09/26 06:46:20;;;;;;;2.78;2.13;;;9.70;99.90;;;;;;5056952;28;20040;-77
2022/09/26 06:48:46;;;;;;;3.10;2.17;;;9.70;99.90;;;;;;5074205;28;20439;-77
2022/09/26 06:51:40;;;;;;;;;;;;;;;;;;;;;
2022/09/26 06:54:34;;;;;;;2.75;2.25;;;9.80;99.90;;;;;;5073181;28;20044;-77
2022/09/26 06:57:13;;;;;;;2.60;2.30;;;9.70;99.90;;;;;;5056827;28;20040;-77
2022/09/26 07:00:14;;;;;;;2.25;1.88;;;9.80;99.90;;;;;;5058027;28;20036;-77
2022/09/26 07:03:20;;;;;;;2.58;2.13;;;9.80;99.90;;;;;;5012180;28;20551;-77
2022/09/26 07:06:06;;;;;;;2.40;2.20;;;9.80;99.90;;;;;;4996508;28;20057;-77
2022/09/26 07:08:50;;;;;;;1.98;1.77;;;9.70;99.90;;;;;;5030906;22;20139;-76
2022/09/26 07:11:46;;;;;;;2.80;2.43;;;9.70;99.90;;;;;;5050568;28;20049;-77
2022/09/26 07:18:01;;;;;;;2.25;1.90;;;9.80;99.90;;;;;;5049875;28;20102;-77
2022/09/26 07:21:19;;;;;;;2.33;1.90;;;9.70;99.90;;;;;;5029312;28;20061;-77
2022/09/26 07:24:03;;;;;;;2.42;2.08;;;9.80;99.90;;;;;;5066809;22;20048;-78
2022/09/26 07:26:28;;;;;;;2.40;2.15;;;9.70;99.90;;;;;;5037591;28;20056;-78
2022/09/26 07:28:54;;;;;;;2.10;1.80;;;9.70;99.90;;;;;;5053841;28;20037;-78
2022/09/26 07:31:22;;;;;;;2.10;1.90;;;9.70;99.90;;;;;;5037531;28;20116;-78
2022/09/26 07:33:47;;;;;;;2.20;2.00;;;9.70;99.90;;;;;;5053910;28;20043;-79
2022/09/26 07:36:14;;;;;;;2.10;1.83;;;9.70;99.90;;;;;;5053667;28;20048;-78
2022/09/26 07:38:41;;;;;;;2.35;2.15;;;9.70;99.90;;;;;;5053280;28;20033;-77
2022/09/26 07:41:09;;;;;;;2.47;2.10;;;9.70;99.90;;;;;;5070154;28;20123;-78
2022/09/26 07:43:35;;;;;;;2.72;2.30;;;9.80;99.90;;;;;;5053543;28;20087;-77
2022/09/26 07:51:31;;;;;;;2.45;2.13;;;9.90;99.90;;;;;;5054624;28;20043;-78
2022/09/26 07:53:56;;;;;;;2.47;2.15;;;10.00;99.90;;;;;;5053496;28;20037;-78
2022/09/26 07:56:22;;;;;;;2.70;2.10;;;10.00;99.90;;;;;;5054493;28;20053;-78
2022/09/26 07:58:48;;;;;;;2.22;1.98;;;10.10;99.90;;;;;;5054470;28;20032;-78
2022/09/26 08:01:15;;;;;;;2.15;1.95;;;10.20;99.90;;;;;;5053892;28;20044;-77
2022/09/26 08:03:43;;;;;;;2.45;2.25;;;10.20;99.90;;;;;;5056988;28;20063;-77
2022/09/26 08:06:09;;;;;;;3.05;1.80;;;10.30;99.90;;;;;;5072345;28;20469;-78
2022/09/26 08:08:35;;;;;;;2.65;2.20;;;10.30;99.90;;;;;;5071561;28;20067;-78
2022/09/26 08:11:02;;;;;;;2.10;1.90;;;10.40;99.90;;;;;;5077156;28;20068;-78
2022/09/26 08:13:30;;;;;;;2.10;1.73;;;10.40;99.90;;;;;;5059551;28;20065;-78
2022/09/26 08:16:03;;;;;;;2.13;1.80;;;10.50;99.90;;;;;;5078645;28;20045;-78
2022/09/26 08:18:29;;;;;;;3.08;2.00;;;10.50;99.90;;;;;;5077675;28;20028;-78
2022/09/26 08:20:54;;;;;;;1.88;1.60;;;10.50;99.90;;;;;;5077727;28;20136;-78
2022/09/26 08:23:20;;;;;;;2.08;1.88;;;10.60;99.90;;;;;;5059183;28;20076;-78
2022/09/26 08:25:46;;;;;;;2.30;1.70;;;10.60;99.90;;;;;;5059324;28;20032;-78
2022/09/26 08:28:12;;;;;;;1.50;1.40;;;10.70;99.90;;;;;;5041053;28;20098;-78
2022/09/26 08:30:39;;;;;;;2.65;1.58;;;10.70;99.90;;;;;;5060729;28;20036;-78
2022/09/26 08:33:06;;;;;;;1.73;1.60;;;10.60;99.90;;;;;;5080751;28;20047;-78
2022/09/26 08:35:37;;;;;;;2.03;1.70;;;10.70;99.90;;;;;;5082301;28;20063;-78
2022/09/26 08:38:04;;;;;;;1.50;1.40;;;10.70;99.90;;;;;;5052937;28;20040;-78
2022/09/26 08:41:19;;;;;;;1.73;1.50;;;10.70;99.90;;;;;;5062547;28;20412;-78
2022/09/26 08:44:28;;;;;;;2.45;1.60;;;10.70;99.90;;;;;;5033456;28;20056;-78
2022/09/26 08:47:03;;;;;;;1.42;1.30;;;10.70;99.90;;;;;;5045215;28;20036;-78
2022/09/26 08:49:53;;;;;;;1.67;1.40;;;10.80;99.90;;;;;;5062577;28;20097;-78
2022/09/26 08:52:21;;;;;;;2.42;1.70;;;10.80;99.90;;;;;;5060190;28;20506;-78
2022/09/26 08:54:50;;;;;;;1.85;1.58;;;10.70;99.90;;;;;;5043489;28;20048;-78
2022/09/26 08:57:42;;;;;;;1.73;1.63;;;10.80;99.90;;;;;;5077924;28;20510;-78
2022/09/26 09:00:17;;;;;;;1.55;1.45;;;10.80;99.90;;;;;;5043857;28;20041;-78
2022/09/26 09:02:47;;;;;;;2.15;1.95;;;10.90;99.90;;;;;;5062122;28;20033;-78
2022/09/26 09:05:23;;;;;;;1.50;1.40;;;10.90;99.90;;;;;;5060749;28;20041;-78
2022/09/26 09:07:52;;;;;;;1.48;1.38;;;10.90;99.90;;;;;;5076692;28;20052;-78
2022/09/26 09:10:28;;;;;;;1.80;1.48;;;10.90;99.90;;;;;;5060769;28;20119;-78
2022/09/26 09:13:15;;;;;;;1.70;1.48;;;11.00;99.90;;;;;;5041226;28;20071;-78
2022/09/26 09:16:19;;;;;;;2.10;1.75;;;11.00;99.90;;;;;;5075655;28;20054;-78
2022/09/26 09:18:53;;;;;;;2.50;1.85;;;11.10;99.90;;;;;;5056878;28;20044;-78
2022/09/26 09:21:34;;;;;;;2.38;1.70;;;11.10;99.90;;;;;;5043915;28;20044;-78
2022/09/26 09:24:08;;;;;;;2.00;1.60;;;11.10;99.90;;;;;;5061749;28;20051;-79
2022/09/26 09:26:40;;;;;;;1.92;1.70;;;11.10;99.90;;;;;;5045807;28;20071;-78
2022/09/26 09:29:26;;;;;;;1.90;1.65;;;11.10;99.90;;;;;;5045367;28;20410;-78
2022/09/26 09:31:54;;;;;;;2.80;1.83;;;11.10;99.90;;;;;;5025088;28;20102;-79
2022/09/26 09:34:37;;;;;;;1.73;1.63;;;11.00;99.90;;;;;;5080914;28;20078;-78
2022/09/26 09:37:04;;;;;;;;;;;11.10;99.90;;;;;;5047950;28;20418;-78
2022/09/26 09:39:35;;;;;;;2.00;1.70;;;11.10;99.90;;;;;;5062733;28;19939;-78
2022/09/26 09:42:26;;;;;;;2.50;1.70;;;11.10;99.90;;;;;;5080265;28;20045;-78
2022/09/26 09:45:05;;;;;;;1.67;1.58;;;11.10;99.90;;;;;;5056501;28;20113;-78
2022/09/26 09:47:36;;;;;;;1.95;1.50;;;11.10;99.90;;;;;;5061756;28;20047;-78
2022/09/26 09:50:15;;;;;;;1.88;1.63;;;11.10;99.90;;;;;;5060219;28;20096;-77
2022/09/26 09:52:45;;;;;;;2.58;2.10;;;11.10;99.90;;;;;;5061027;28;20040;-77
2022/09/26 09:55:26;;;;;;;1.90;1.65;;;11.10;99.90;;;;;;5046938;28;20067;-78
2022/09/26 09:58:10;;;;;;;2.60;1.80;;;11.10;99.90;;;;;;5064579;28;20048;-78
2022/09/26 10:00:43;;;;;;;1.40;1.30;;;11.10;99.90;;;;;;5064953;28;20072;-78
2022/09/26 10:03:26;;;;;;;2.00;1.80;;;11.10;99.90;;;;;;5064420;28;20126;-78
2022/09/26 10:05:55;;;;;;;;;;;11.10;99.90;;;;;;5068282;28;20064;-79
2022/09/26 10:08:27;;;;;;;1.70;1.60;;;11.20;99.90;;;;;;5065052;28;20382;-78
2022/09/26 10:11:40;;;;;;;2.08;1.70;;;11.20;99.90;;;;;;5083861;28;20522;-81
2022/09/26 10:14:12;;;;;;;1.48;1.38;;;11.20;99.90;;;;;;5021996;28;20045;-78
2022/09/26 10:17:08;;;;;;;2.20;1.70;;;11.20;99.90;;;;;;4991019;28;20142;-77
2022/09/26 10:19:39;;;;;;;2.28;1.77;;;11.30;99.90;;;;;;5050070;28;20048;-78
2022/09/26 10:22:11;;;;;;;2.03;1.67;;;11.30;99.90;;;;;;5065239;28;20040;-77
2022/09/26 10:24:39;;;;;;;2.03;1.73;;;11.30;99.90;;;;;;5065029;28;20040;-77
2022/09/26 10:27:23;;;;;;;2.00;1.83;;;11.30;99.90;;;;;;5066798;28;20037;-77
2022/09/26 10:29:59;;;;;;;;;;;11.30;99.90;;;;;;5068723;28;20044;-77
2022/09/26 10:32:26;;;;;;;2.35;1.70;;;11.30;99.90;;;;;;5065943;28;19927;-77
2022/09/26 10:35:17;;;;;;;1.60;1.50;;;11.40;99.90;;;;;;5065706;28;20041;-78
2022/09/26 10:37:48;;;;;;;2.05;1.67;;;11.30;99.90;;;;;;5049075;28;20075;-79
2022/09/26 10:43:22;;;;;;;1.75;1.60;;;11.30;99.90;;;;;;5069387;28;20055;-78
2022/09/26 10:45:49;;;;;;;2.08;1.88;;;11.30;99.90;;;;;;5053464;28;20040;-79
2022/09/26 10:48:20;;;;;;;2.10;1.90;;;11.20;99.90;;;;;;5087032;28;20064;-78
2022/09/26 10:50:51;;;;;;;2.65;1.80;;;11.30;99.90;;;;;;5068416;28;20052;-78
2022/09/26 10:53:21;;;;;;;2.20;2.00;;;11.30;99.90;;;;;;5085291;28;20036;-78
2022/09/26 10:55:57;;;;;;;2.05;1.83;;;11.30;99.90;;;;;;5075145;28;20517;-78
2022/09/26 10:58:28;;;;;;;1.98;1.77;;;11.30;99.90;;;;;;5058270;28;20052;-78
2022/09/26 11:00:56;;;;;;;1.92;1.73;;;11.30;99.90;;;;;;5041281;28;20037;-77
2022/09/26 11:03:45;;;;;;;2.20;1.98;;;11.30;99.90;;;;;;5075143;28;20040;-78
2022/09/26 11:06:35;;;;;;;1.75;1.65;;;11.30;99.90;;;;;;5051332;28;20044;-78
2022/09/26 11:09:02;;;;;;;1.85;1.75;;;11.40;99.90;;;;;;5049611;28;20075;-78
2022/09/26 11:11:32;;;;;;;2.50;2.30;;;11.40;99.90;;;;;;5057578;28;20486;-78
2022/09/26 11:14:06;;;;;;;2.25;1.90;;;11.40;99.90;;;;;;5057717;28;20044;-78
2022/09/26 11:16:51;;;;;;;2.35;2.05;;;11.40;99.90;;;;;;5057526;28;20394;-78
2022/09/26 11:19:37;;;;;;;2.10;1.92;;;11.40;99.90;;;;;;5058627;28;20080;-78
2022/09/26 11:22:07;;;;;;;2.17;1.98;;;11.40;99.90;;;;;;5056144;28;20036;-78
2022/09/26 11:24:41;;;;;;;1.90;1.80;;;11.40;99.90;;;;;;5056412;28;20043;-79
2022/09/26 11:27:30;;;;;;;2.20;2.00;;;11.40;99.90;;;;;;5056924;28;20423;-78
2022/09/26 11:30:16;;;;;;;2.30;2.10;;;11.40;99.90;;;;;;5057526;28;20037;-78
2022/09/26 11:32:49;;;;;;;2.17;1.90;;;11.40;99.90;;;;;;5057664;28;20044;-78
2022/09/26 11:35:42;;;;;;;2.00;1.90;;;11.50;99.90;;;;;;5074775;28;20127;-78
2022/09/26 11:38:43;;;;;;;2.10;1.90;;;11.50;99.90;;;;;;5030805;28;20127;-78
2022/09/26 11:41:42;;;;;;;2.35;2.15;;;11.50;99.90;;;;;;5059672;28;20359;-78
2022/09/26 11:44:44;;;;;;;2.28;1.92;;;11.50;99.90;;;;;;5061619;28;20064;-78
2022/09/26 11:47:32;;;;;;;2.15;1.95;;;11.50;99.90;;;;;;5078002;28;20099;-78
2022/09/26 11:50:16;;;;;;;2.15;1.80;;;11.40;99.90;;;;;;5063193;28;20076;-78
2022/09/26 11:53:04;;;;;;;2.08;1.85;;;11.50;99.90;;;;;;5047936;28;20033;-78
2022/09/26 11:55:53;;;;;;;1.83;1.70;;;11.50;99.90;;;;;;5079979;28;20040;-78
2022/09/26 11:58:50;;;;;;;1.90;1.80;;;11.50;99.90;;;;;;5063004;28;20071;-78
2022/09/26 12:01:19;;;;;;;2.05;1.92;;;11.50;99.90;;;;;;5063952;28;20032;-79
2022/09/26 12:03:54;;;;;;;2.13;1.92;;;11.50;99.90;;;;;;5062873;28;20048;-78
2022/09/26 12:06:20;;;;;;;2.28;2.08;;;11.50;99.90;;;;;;5061919;28;20438;-78
2022/09/26 12:08:59;;;;;;;2.58;1.77;;;11.60;99.90;;;;;;5062686;28;20040;-78
2022/09/26 12:11:54;;;;;;;2.03;1.83;;;11.60;99.90;;;;;;5062193;28;20040;-77
2022/09/26 12:14:38;;;;;;;1.90;1.70;;;11.60;99.90;;;;;;5059998;28;20036;-78
2022/09/26 12:17:18;;;;;;;1.58;1.48;;;11.60;99.90;;;;;;5044141;28;20476;-78
2022/09/26 12:20:12;;;;;;;2.65;1.90;;;11.60;99.90;;;;;;5043632;28;20483;-78
2022/09/26 12:23:10;;;;;;;1.70;1.60;;;11.60;99.90;;;;;;5061074;28;20036;-78
2022/09/26 12:25:59;;;;;;;1.77;1.67;;;11.60;99.90;;;;;;5063701;28;20486;-78
2022/09/26 12:29:02;;;;;;;1.48;1.38;;;11.60;99.90;;;;;;5041810;28;20139;-78
2022/09/26 12:31:54;;;;;;;1.60;1.50;;;11.60;99.90;;;;;;5060893;28;20040;-78
2022/09/26 12:34:45;;;;;;;1.40;1.30;;;11.60;99.90;;;;;;5059103;28;20040;-78
2022/09/26 12:37:26;;;;;;;1.58;1.40;;;11.60;99.90;;;;;;5042986;28;20135;-78
2022/09/26 12:40:10;;;;;;;1.52;1.42;;;11.50;99.90;;;;;;5044029;28;20044;-78
2022/09/26 12:42:50;;;;;;;1.40;1.30;;;11.60;99.90;;;;;;5041655;28;20044;-78
2022/09/26 12:45:36;;;;;;;1.45;1.23;;;11.60;99.90;;;;;;5058375;28;20045;-77
2022/09/26 12:48:11;;;;;;;1.30;1.20;;;11.60;99.90;;;;;;5046489;28;20084;-79
2022/09/26 12:51:15;;;;;;;1.38;1.27;;;11.60;99.90;;;;;;5063768;28;20072;-79
2022/09/26 12:54:07;;;;;;;1.20;1.10;;;11.60;99.90;;;;;;5035780;28;20040;-81
2022/09/26 12:56:45;;;;;;;1.25;1.15;;;11.60;99.90;;;;;;5051106;28;20040;-80
2022/09/26 13:00:10;;;;;;;1.10;1.00;;;11.70;99.90;;;;;;5078443;28;20045;-78
2022/09/26 13:02:41;;;;;;;1.23;1.13;;;11.70;99.90;;;;;;5023355;28;20463;-79
2022/09/26 13:05:17;;;;;;;1.10;1.00;;;11.80;99.90;;;;;;5061686;28;20494;-79
2022/09/26 13:08:10;;;;;;;0.88;0.88;;;11.80;99.90;;;;;;5060561;28;20490;-78
2022/09/26 13:10:53;;;;;;;1.10;1.00;;;11.80;99.90;;;;;;5060275;28;20036;-79
2022/09/26 13:13:36;;;;;;;;;;;11.80;99.90;;;;;;5062069;28;20042;-79
2022/09/26 13:16:39;;;;;;;1.58;1.48;;;11.90;99.90;;;;;;5076552;28;19924;-78
2022/09/26 13:19:23;;;;;;;1.08;1.00;;;12.00;99.90;;;;;;5058755;28;20044;-78
2022/09/26 13:22:02;;;;;;;1.30;1.20;;;12.00;99.90;;;;;;5058531;28;20059;-78
2022/09/26 13:25:01;;;;;;;1.15;1.05;;;12.00;99.90;;;;;;5064328;23;20490;-78
2022/09/26 13:27:35;;;;;;;1.20;1.10;;;12.10;99.90;;;;;;5057183;28;20065;-78
2022/09/26 13:30:05;;;;;;;;;;;12.20;99.90;;;;;;5042673;28;20033;-78
2022/09/26 13:33:07;;;;;;;1.10;1.00;;;12.30;99.90;;;;;;5056330;28;19916;-78
2022/09/26 13:35:35;;;;;;;1.13;1.02;;;12.40;99.90;;;;;;5060155;28;20126;-78
2022/09/26 13:38:29;;;;;;;1.20;1.10;;;12.50;99.90;;;;;;5075516;28;20037;-79
2022/09/26 13:41:21;;;;;;;;;;;12.50;99.90;;;;;;5058287;28;20040;-78
2022/09/26 13:44:10;;;;;;;1.13;1.02;;;12.60;99.90;;;;;;5059670;28;20011;-78
2022/09/26 13:46:42;;;;;;;1.13;1.02;;;12.50;99.90;;;;;;5073916;28;20041;-78
2022/09/26 13:49:53;;;;;;;1.10;1.00;;;12.60;99.90;;;;;;5056353;28;20041;-78
2022/09/26 13:52:34;;;;;;;0.95;0.90;;;12.50;99.90;;;;;;5037323;28;20056;-78
2022/09/26 13:55:13;;;;;;;1.10;1.00;;;12.60;99.90;;;;;;5073765;28;20492;-79
2022/09/26 13:57:48;;;;;;;1.15;1.05;;;12.60;99.90;;;;;;5090505;28;20522;-78
2022/09/26 14:00:28;;;;;;;0.90;0.90;;;12.60;99.90;;;;;;5073017;28;20040;-78
2022/09/26 14:03:11;;;;;;;1.27;1.17;;;12.60;99.90;;;;;;5073843;28;20179;-78
2022/09/26 14:05:40;;;;;;;1.08;1.00;;;12.60;99.90;;;;;;5071389;28;20048;-78
2022/09/26 14:11:27;;;;;;;1.42;1.30;;;12.60;99.90;;;;;;5088883;28;20052;-78
2022/09/26 14:14:14;;;;;;;1.35;1.00;;;12.60;99.90;;;;;;5073302;28;20430;-78
2022/09/26 14:16:41;;;;;;;1.30;1.20;;;12.60;99.90;;;;;;5033614;28;20088;-78
2022/09/26 14:19:31;;;;;;;1.30;1.20;;;12.60;99.90;;;;;;5052798;28;20075;-78